Pagina principale
METAR-TAF:

METAR-TAF

Aeroporti :

Aeroporto di Dakar-Léopold Sedar Senghor

Dakar, Senegal

latitudine: 14-44N, longitudine: 017-30W, altezza: 27 m

Osservazione

Il bollettino è stato emesso 41 minuti fa, alle 06:00 UTC
Vento 12 kt da sud-est
Temperature 26°C
Umidità 100%
Pressione 1012 hPa
Visibilità: 8000 m
Nuvoloso ad un'altezza di 1300 ft

METAR: GOOY 170600Z 14012KT 8000 BKN013 26/26 Q1012

Ora: 06:41 (06:41 UTC)

Previsione

Il bollettino è stato emesso 1 ora e 11 minuti fa, alle 05:30 UTC
Previsione valida dal 17 alle 06 UTC al 18 alle 12 UTC
Vento 8 kt da ovest/nord-ovest
Visibilità 10 km o più
Nubi sparse ad un'altezza di 1200 ft

TAF: GOOY 170530Z 1706/1812 30008KT 9999 SCT012

Osservazioni e previsioni meteorologiche di più di 4000 aeroporti (messaggi METAR e TAF).

Le stazioni disponibili sono rappresentate dai dischi gialli e rossi sulla carta.

Puntare il mouse per vedere il nome della stazione.

Clicca sopra per visualizzare le osservazioni e previsioni meteorologiche.

Per cambiare la mappa : fare clic sui pulsanti verdi con una croce nera per ingrandire, il pulsante verde con un trattino per diminuire, o sulla freccia verde per le mappe adiacenti.


METAR-TAF: